sensor_id;sensor_type;location;lat;lon;timestamp;P1;durP1;ratioP1;P2;durP2;ratioP2
17844;SDS011;9047;53.486;10.218;2024-01-25T00:01:17;32.35;;;5.85;;
17844;SDS011;9047;53.486;10.218;2024-01-25T00:03:44;48.92;;;7.28;;
17844;SDS011;9047;53.486;10.218;2024-01-25T00:06:11;43.55;;;5.78;;
17844;SDS011;9047;53.486;10.218;2024-01-25T00:08:39;38.35;;;6.40;;
17844;SDS011;9047;53.486;10.218;2024-01-25T00:11:06;35.70;;;5.90;;
17844;SDS011;9047;53.486;10.218;2024-01-25T00:13:34;39.10;;;6.25;;
17844;SDS011;9047;53.486;10.218;2024-01-25T00:16:02;41.00;;;6.07;;
17844;SDS011;9047;53.486;10.218;2024-01-25T00:18:30;40.40;;;6.25;;
17844;SDS011;9047;53.486;10.218;2024-01-25T00:20:57;40.28;;;6.20;;
17844;SDS011;9047;53.486;10.218;2024-01-25T00:23:23;37.42;;;6.13;;
17844;SDS011;9047;53.486;10.218;2024-01-25T00:25:52;40.17;;;6.63;;
17844;SDS011;9047;53.486;10.218;2024-01-25T00:28:18;45.03;;;6.55;;
17844;SDS011;9047;53.486;10.218;2024-01-25T00:30:45;38.15;;;6.32;;
17844;SDS011;9047;53.486;10.218;2024-01-25T00:33:12;44.80;;;6.88;;
17844;SDS011;9047;53.486;10.218;2024-01-25T00:35:41;45.35;;;6.25;;
17844;SDS011;9047;53.486;10.218;2024-01-25T00:38:09;42.80;;;6.63;;
17844;SDS011;9047;53.486;10.218;2024-01-25T00:40:36;40.38;;;5.60;;
17844;SDS011;9047;53.486;10.218;2024-01-25T00:43:07;35.20;;;5.88;;
17844;SDS011;9047;53.486;10.218;2024-01-25T00:45:34;39.15;;;6.10;;
17844;SDS011;9047;53.486;10.218;2024-01-25T00:48:02;34.08;;;6.40;;
17844;SDS011;9047;53.486;10.218;2024-01-25T00:50:31;44.92;;;6.28;;
17844;SDS011;9047;53.486;10.218;2024-01-25T00:52:59;44.50;;;5.28;;
17844;SDS011;9047;53.486;10.218;2024-01-25T00:55:26;45.78;;;6.78;;
17844;SDS011;9047;53.486;10.218;2024-01-25T00:57:54;41.92;;;5.95;;
17844;SDS011;9047;53.486;10.218;2024-01-25T01:00:23;37.22;;;6.03;;
17844;SDS011;9047;53.486;10.218;2024-01-25T01:02:50;39.28;;;6.10;;
17844;SDS011;9047;53.486;10.218;2024-01-25T01:05:19;43.13;;;6.75;;
17844;SDS011;9047;53.486;10.218;2024-01-25T01:07:47;51.40;;;6.85;;
17844;SDS011;9047;53.486;10.218;2024-01-25T01:10:14;43.10;;;5.25;;
17844;SDS011;9047;53.486;10.218;2024-01-25T01:12:40;47.03;;;6.80;;
17844;SDS011;9047;53.486;10.218;2024-01-25T01:15:07;36.25;;;6.10;;
17844;SDS011;9047;53.486;10.218;2024-01-25T01:17:37;42.28;;;5.78;;
17844;SDS011;9047;53.486;10.218;2024-01-25T01:20:04;37.97;;;6.22;;
17844;SDS011;9047;53.486;10.218;2024-01-25T01:22:32;31.55;;;6.03;;
17844;SDS011;9047;53.486;10.218;2024-01-25T01:24:59;37.97;;;6.43;;
17844;SDS011;9047;53.486;10.218;2024-01-25T01:27:25;38.45;;;6.05;;
17844;SDS011;9047;53.486;10.218;2024-01-25T01:29:52;42.45;;;6.72;;
17844;SDS011;9047;53.486;10.218;2024-01-25T01:32:19;38.22;;;6.32;;
17844;SDS011;9047;53.486;10.218;2024-01-25T01:34:47;34.22;;;5.57;;
17844;SDS011;9047;53.486;10.218;2024-01-25T01:37:14;34.78;;;6.13;;
17844;SDS011;9047;53.486;10.218;2024-01-25T01:39:41;34.97;;;5.35;;
17844;SDS011;9047;53.486;10.218;2024-01-25T01:42:08;40.60;;;6.00;;
17844;SDS011;9047;53.486;10.218;2024-01-25T01:44:36;40.90;;;6.30;;
17844;SDS011;9047;53.486;10.218;2024-01-25T01:47:03;41.63;;;5.93;;
17844;SDS011;9047;53.486;10.218;2024-01-25T01:49:31;42.45;;;6.63;;
17844;SDS011;9047;53.486;10.218;2024-01-25T01:51:59;37.45;;;5.57;;
17844;SDS011;9047;53.486;10.218;2024-01-25T01:54:26;41.30;;;6.00;;
17844;SDS011;9047;53.486;10.218;2024-01-25T01:56:53;44.78;;;6.65;;
17844;SDS011;9047;53.486;10.218;2024-01-25T01:59:21;41.15;;;5.78;;
17844;SDS011;9047;53.486;10.218;2024-01-25T02:01:50;32.90;;;5.85;;
17844;SDS011;9047;53.486;10.218;2024-01-25T02:04:17;35.55;;;6.15;;
17844;SDS011;9047;53.486;10.218;2024-01-25T02:06:44;39.58;;;5.93;;
17844;SDS011;9047;53.486;10.218;2024-01-25T02:09:12;45.10;;;5.90;;
17844;SDS011;9047;53.486;10.218;2024-01-25T02:11:39;36.95;;;6.30;;
17844;SDS011;9047;53.486;10.218;2024-01-25T02:14:06;41.53;;;6.18;;
17844;SDS011;9047;53.486;10.218;2024-01-25T02:16:36;40.42;;;5.93;;
17844;SDS011;9047;53.486;10.218;2024-01-25T02:19:03;41.38;;;6.57;;
17844;SDS011;9047;53.486;10.218;2024-01-25T02:21:37;35.08;;;5.70;;
17844;SDS011;9047;53.486;10.218;2024-01-25T02:24:11;45.75;;;6.00;;
17844;SDS011;9047;53.486;10.218;2024-01-25T02:26:38;41.35;;;5.75;;
17844;SDS011;9047;53.486;10.218;2024-01-25T02:29:05;45.17;;;6.57;;
17844;SDS011;9047;53.486;10.218;2024-01-25T02:31:33;39.65;;;5.90;;
17844;SDS011;9047;53.486;10.218;2024-01-25T02:34:00;36.92;;;5.72;;
17844;SDS011;9047;53.486;10.218;2024-01-25T02:36:26;37.78;;;5.53;;
17844;SDS011;9047;53.486;10.218;2024-01-25T02:38:53;39.92;;;6.63;;
17844;SDS011;9047;53.486;10.218;2024-01-25T02:41:21;39.33;;;6.00;;
17844;SDS011;9047;53.486;10.218;2024-01-25T02:43:48;44.83;;;6.93;;
17844;SDS011;9047;53.486;10.218;2024-01-25T02:46:15;45.53;;;6.95;;
17844;SDS011;9047;53.486;10.218;2024-01-25T02:48:41;43.42;;;6.95;;
17844;SDS011;9047;53.486;10.218;2024-01-25T02:51:12;40.30;;;6.93;;
17844;SDS011;9047;53.486;10.218;2024-01-25T02:53:39;41.88;;;6.10;;
17844;SDS011;9047;53.486;10.218;2024-01-25T02:56:06;36.65;;;6.32;;
17844;SDS011;9047;53.486;10.218;2024-01-25T02:58:35;32.83;;;6.47;;
17844;SDS011;9047;53.486;10.218;2024-01-25T03:01:02;53.92;;;6.38;;
17844;SDS011;9047;53.486;10.218;2024-01-25T03:03:28;34.17;;;5.40;;
17844;SDS011;9047;53.486;10.218;2024-01-25T03:05:55;43.35;;;6.05;;
17844;SDS011;9047;53.486;10.218;2024-01-25T03:08:23;38.53;;;5.78;;
17844;SDS011;9047;53.486;10.218;2024-01-25T03:10:50;40.75;;;5.32;;
17844;SDS011;9047;53.486;10.218;2024-01-25T03:13:17;34.25;;;5.68;;
17844;SDS011;9047;53.486;10.218;2024-01-25T03:15:47;34.70;;;5.28;;
17844;SDS011;9047;53.486;10.218;2024-01-25T03:18:15;41.78;;;6.00;;
17844;SDS011;9047;53.486;10.218;2024-01-25T03:20:42;39.95;;;5.68;;
17844;SDS011;9047;53.486;10.218;2024-01-25T03:23:10;38.65;;;6.47;;
17844;SDS011;9047;53.486;10.218;2024-01-25T03:25:40;37.00;;;5.20;;
17844;SDS011;9047;53.486;10.218;2024-01-25T03:28:07;35.70;;;5.70;;
17844;SDS011;9047;53.486;10.218;2024-01-25T03:30:34;40.08;;;5.22;;
17844;SDS011;9047;53.486;10.218;2024-01-25T03:33:02;31.85;;;5.07;;
17844;SDS011;9047;53.486;10.218;2024-01-25T03:35:29;34.28;;;5.95;;
17844;SDS011;9047;53.486;10.218;2024-01-25T03:37:56;38.78;;;5.53;;
17844;SDS011;9047;53.486;10.218;2024-01-25T03:40:23;37.17;;;6.75;;
17844;SDS011;9047;53.486;10.218;2024-01-25T03:42:49;38.58;;;5.82;;
17844;SDS011;9047;53.486;10.218;2024-01-25T03:45:16;32.08;;;5.40;;
17844;SDS011;9047;53.486;10.218;2024-01-25T03:47:43;31.67;;;4.93;;
17844;SDS011;9047;53.486;10.218;2024-01-25T03:50:12;42.88;;;6.63;;
17844;SDS011;9047;53.486;10.218;2024-01-25T03:52:39;38.05;;;5.38;;
17844;SDS011;9047;53.486;10.218;2024-01-25T03:55:06;40.72;;;5.88;;
17844;SDS011;9047;53.486;10.218;2024-01-25T03:57:33;32.40;;;5.28;;
17844;SDS011;9047;53.486;10.218;2024-01-25T04:00:01;37.28;;;5.50;;
17844;SDS011;9047;53.486;10.218;2024-01-25T04:02:29;35.97;;;5.68;;
17844;SDS011;9047;53.486;10.218;2024-01-25T04:04:56;33.60;;;5.35;;
17844;SDS011;9047;53.486;10.218;2024-01-25T04:07:24;43.90;;;5.40;;
17844;SDS011;9047;53.486;10.218;2024-01-25T04:09:51;33.50;;;5.50;;
17844;SDS011;9047;53.486;10.218;2024-01-25T04:12:18;31.67;;;5.63;;
17844;SDS011;9047;53.486;10.218;2024-01-25T04:14:44;39.72;;;5.97;;
17844;SDS011;9047;53.486;10.218;2024-01-25T04:17:11;29.58;;;5.65;;
17844;SDS011;9047;53.486;10.218;2024-01-25T04:19:38;34.05;;;5.75;;
17844;SDS011;9047;53.486;10.218;2024-01-25T04:22:05;31.27;;;5.30;;
17844;SDS011;9047;53.486;10.218;2024-01-25T04:24:33;31.58;;;4.68;;
17844;SDS011;9047;53.486;10.218;2024-01-25T04:27:00;32.92;;;4.78;;
17844;SDS011;9047;53.486;10.218;2024-01-25T04:29:26;37.92;;;5.88;;
17844;SDS011;9047;53.486;10.218;2024-01-25T04:31:53;32.40;;;5.35;;
17844;SDS011;9047;53.486;10.218;2024-01-25T04:34:20;39.10;;;5.13;;
17844;SDS011;9047;53.486;10.218;2024-01-25T04:36:46;39.65;;;5.78;;
17844;SDS011;9047;53.486;10.218;2024-01-25T04:39:13;37.65;;;5.13;;
17844;SDS011;9047;53.486;10.218;2024-01-25T04:41:42;39.85;;;5.25;;
17844;SDS011;9047;53.486;10.218;2024-01-25T04:44:08;30.90;;;5.07;;
17844;SDS011;9047;53.486;10.218;2024-01-25T04:46:35;34.38;;;5.38;;
17844;SDS011;9047;53.486;10.218;2024-01-25T04:49:02;34.92;;;4.75;;
17844;SDS011;9047;53.486;10.218;2024-01-25T04:51:29;41.90;;;5.15;;
17844;SDS011;9047;53.486;10.218;2024-01-25T04:53:56;31.42;;;4.95;;
17844;SDS011;9047;53.486;10.218;2024-01-25T04:56:23;40.50;;;5.25;;
17844;SDS011;9047;53.486;10.218;2024-01-25T04:58:51;31.92;;;5.38;;
17844;SDS011;9047;53.486;10.218;2024-01-25T05:01:18;29.42;;;5.22;;
17844;SDS011;9047;53.486;10.218;2024-01-25T05:03:44;34.50;;;5.43;;
17844;SDS011;9047;53.486;10.218;2024-01-25T05:06:11;33.85;;;5.15;;
17844;SDS011;9047;53.486;10.218;2024-01-25T05:08:38;32.60;;;5.03;;
17844;SDS011;9047;53.486;10.218;2024-01-25T05:11:08;33.63;;;5.00;;
17844;SDS011;9047;53.486;10.218;2024-01-25T05:13:34;32.88;;;5.50;;
17844;SDS011;9047;53.486;10.218;2024-01-25T05:16:03;34.05;;;5.00;;
17844;SDS011;9047;53.486;10.218;2024-01-25T05:18:30;30.58;;;4.68;;
17844;SDS011;9047;53.486;10.218;2024-01-25T05:20:56;35.75;;;5.07;;
17844;SDS011;9047;53.486;10.218;2024-01-25T05:23:23;35.58;;;5.63;;
17844;SDS011;9047;53.486;10.218;2024-01-25T05:25:50;32.45;;;4.57;;
17844;SDS011;9047;53.486;10.218;2024-01-25T05:28:17;28.00;;;4.82;;
17844;SDS011;9047;53.486;10.218;2024-01-25T05:30:44;32.28;;;5.68;;
17844;SDS011;9047;53.486;10.218;2024-01-25T05:33:13;31.35;;;5.03;;
17844;SDS011;9047;53.486;10.218;2024-01-25T05:35:40;33.22;;;5.03;;
17844;SDS011;9047;53.486;10.218;2024-01-25T05:38:06;29.08;;;4.95;;
17844;SDS011;9047;53.486;10.218;2024-01-25T05:40:36;31.00;;;4.70;;
17844;SDS011;9047;53.486;10.218;2024-01-25T05:43:02;33.38;;;5.05;;
17844;SDS011;9047;53.486;10.218;2024-01-25T05:45:30;34.05;;;5.10;;
17844;SDS011;9047;53.486;10.218;2024-01-25T05:47:57;28.75;;;4.82;;
17844;SDS011;9047;53.486;10.218;2024-01-25T05:50:25;34.30;;;5.20;;
17844;SDS011;9047;53.486;10.218;2024-01-25T05:52:52;32.05;;;4.80;;
17844;SDS011;9047;53.486;10.218;2024-01-25T05:55:18;29.10;;;4.28;;
17844;SDS011;9047;53.486;10.218;2024-01-25T05:57:46;31.48;;;5.40;;
17844;SDS011;9047;53.486;10.218;2024-01-25T06:00:13;32.10;;;4.65;;
17844;SDS011;9047;53.486;10.218;2024-01-25T06:02:41;31.10;;;4.78;;
17844;SDS011;9047;53.486;10.218;2024-01-25T06:05:08;33.67;;;5.30;;
17844;SDS011;9047;53.486;10.218;2024-01-25T06:07:44;40.25;;;5.00;;
17844;SDS011;9047;53.486;10.218;2024-01-25T06:10:11;28.60;;;4.57;;
17844;SDS011;9047;53.486;10.218;2024-01-25T06:12:38;33.13;;;4.72;;
17844;SDS011;9047;53.486;10.218;2024-01-25T06:15:06;36.50;;;5.10;;
17844;SDS011;9047;53.486;10.218;2024-01-25T06:17:33;35.63;;;5.25;;
17844;SDS011;9047;53.486;10.218;2024-01-25T06:20:00;35.78;;;5.75;;
17844;SDS011;9047;53.486;10.218;2024-01-25T06:22:27;34.50;;;5.55;;
17844;SDS011;9047;53.486;10.218;2024-01-25T06:24:55;32.20;;;5.03;;
17844;SDS011;9047;53.486;10.218;2024-01-25T06:27:22;39.00;;;5.45;;
17844;SDS011;9047;53.486;10.218;2024-01-25T06:29:49;33.22;;;5.03;;
17844;SDS011;9047;53.486;10.218;2024-01-25T06:32:16;34.85;;;5.25;;
17844;SDS011;9047;53.486;10.218;2024-01-25T06:34:43;31.02;;;4.47;;
17844;SDS011;9047;53.486;10.218;2024-01-25T06:37:09;33.30;;;5.93;;
17844;SDS011;9047;53.486;10.218;2024-01-25T06:39:36;37.00;;;4.75;;
17844;SDS011;9047;53.486;10.218;2024-01-25T06:42:05;34.15;;;5.32;;
17844;SDS011;9047;53.486;10.218;2024-01-25T06:44:32;34.25;;;4.60;;
17844;SDS011;9047;53.486;10.218;2024-01-25T06:46:59;30.90;;;4.82;;
17844;SDS011;9047;53.486;10.218;2024-01-25T06:49:25;39.30;;;5.78;;
17844;SDS011;9047;53.486;10.218;2024-01-25T06:51:52;33.60;;;4.78;;
17844;SDS011;9047;53.486;10.218;2024-01-25T06:54:21;36.67;;;5.05;;
17844;SDS011;9047;53.486;10.218;2024-01-25T06:56:48;30.00;;;4.90;;
17844;SDS011;9047;53.486;10.218;2024-01-25T06:59:17;32.25;;;5.18;;
17844;SDS011;9047;53.486;10.218;2024-01-25T07:01:44;25.77;;;4.05;;
17844;SDS011;9047;53.486;10.218;2024-01-25T07:04:12;29.83;;;5.03;;
17844;SDS011;9047;53.486;10.218;2024-01-25T07:06:39;29.65;;;4.55;;
17844;SDS011;9047;53.486;10.218;2024-01-25T07:09:06;33.08;;;5.25;;
17844;SDS011;9047;53.486;10.218;2024-01-25T07:11:33;35.08;;;4.80;;
17844;SDS011;9047;53.486;10.218;2024-01-25T07:14:00;26.48;;;4.60;;
17844;SDS011;9047;53.486;10.218;2024-01-25T07:16:28;39.05;;;5.00;;
17844;SDS011;9047;53.486;10.218;2024-01-25T07:18:58;33.88;;;5.28;;
17844;SDS011;9047;53.486;10.218;2024-01-25T07:21:25;32.63;;;4.43;;
17844;SDS011;9047;53.486;10.218;2024-01-25T07:23:52;32.10;;;4.85;;
17844;SDS011;9047;53.486;10.218;2024-01-25T07:26:18;38.75;;;5.55;;
17844;SDS011;9047;53.486;10.218;2024-01-25T07:28:46;27.73;;;5.18;;
17844;SDS011;9047;53.486;10.218;2024-01-25T07:31:14;35.47;;;5.25;;
17844;SDS011;9047;53.486;10.218;2024-01-25T07:33:42;30.13;;;5.68;;
17844;SDS011;9047;53.486;10.218;2024-01-25T07:36:09;37.55;;;5.82;;
17844;SDS011;9047;53.486;10.218;2024-01-25T07:38:37;37.83;;;5.70;;
17844;SDS011;9047;53.486;10.218;2024-01-25T07:41:07;33.05;;;5.40;;
17844;SDS011;9047;53.486;10.218;2024-01-25T07:43:34;34.13;;;5.25;;
17844;SDS011;9047;53.486;10.218;2024-01-25T07:46:01;37.17;;;5.30;;
17844;SDS011;9047;53.486;10.218;2024-01-25T07:48:28;27.38;;;4.75;;
17844;SDS011;9047;53.486;10.218;2024-01-25T07:50:57;40.38;;;6.20;;
17844;SDS011;9047;53.486;10.218;2024-01-25T07:53:24;34.63;;;4.65;;
17844;SDS011;9047;53.486;10.218;2024-01-25T07:55:50;36.75;;;6.03;;
17844;SDS011;9047;53.486;10.218;2024-01-25T07:58:17;35.72;;;5.65;;
17844;SDS011;9047;53.486;10.218;2024-01-25T08:00:44;34.53;;;5.20;;
17844;SDS011;9047;53.486;10.218;2024-01-25T08:03:12;36.25;;;5.32;;
17844;SDS011;9047;53.486;10.218;2024-01-25T08:05:38;35.60;;;5.50;;
17844;SDS011;9047;53.486;10.218;2024-01-25T08:08:06;35.03;;;5.43;;
17844;SDS011;9047;53.486;10.218;2024-01-25T08:10:34;37.15;;;5.80;;
17844;SDS011;9047;53.486;10.218;2024-01-25T08:13:00;35.33;;;5.80;;
17844;SDS011;9047;53.486;10.218;2024-01-25T08:15:29;32.92;;;5.50;;
17844;SDS011;9047;53.486;10.218;2024-01-25T08:17:55;42.28;;;5.90;;
17844;SDS011;9047;53.486;10.218;2024-01-25T08:20:22;32.40;;;5.43;;
17844;SDS011;9047;53.486;10.218;2024-01-25T08:22:49;35.47;;;5.60;;
17844;SDS011;9047;53.486;10.218;2024-01-25T08:25:17;38.20;;;5.68;;
17844;SDS011;9047;53.486;10.218;2024-01-25T08:27:45;38.03;;;5.47;;
17844;SDS011;9047;53.486;10.218;2024-01-25T08:30:12;36.15;;;5.75;;
17844;SDS011;9047;53.486;10.218;2024-01-25T08:32:39;42.47;;;6.00;;
17844;SDS011;9047;53.486;10.218;2024-01-25T08:35:09;36.13;;;5.15;;
17844;SDS011;9047;53.486;10.218;2024-01-25T08:37:36;38.47;;;6.63;;
17844;SDS011;9047;53.486;10.218;2024-01-25T08:40:05;33.38;;;5.05;;
17844;SDS011;9047;53.486;10.218;2024-01-25T08:42:34;32.53;;;5.68;;
17844;SDS011;9047;53.486;10.218;2024-01-25T08:45:01;35.33;;;5.78;;
17844;SDS011;9047;53.486;10.218;2024-01-25T08:47:30;36.15;;;5.25;;
17844;SDS011;9047;53.486;10.218;2024-01-25T08:49:57;25.63;;;4.82;;
17844;SDS011;9047;53.486;10.218;2024-01-25T08:52:24;35.45;;;5.15;;
17844;SDS011;9047;53.486;10.218;2024-01-25T08:54:50;30.42;;;5.47;;
17844;SDS011;9047;53.486;10.218;2024-01-25T08:57:18;28.02;;;5.20;;
17844;SDS011;9047;53.486;10.218;2024-01-25T08:59:46;30.30;;;4.75;;
17844;SDS011;9047;53.486;10.218;2024-01-25T09:02:13;34.90;;;4.65;;
17844;SDS011;9047;53.486;10.218;2024-01-25T09:04:40;27.52;;;4.95;;
17844;SDS011;9047;53.486;10.218;2024-01-25T09:07:08;30.48;;;4.75;;
17844;SDS011;9047;53.486;10.218;2024-01-25T09:09:35;35.40;;;4.85;;
17844;SDS011;9047;53.486;10.218;2024-01-25T09:12:01;33.88;;;4.72;;
17844;SDS011;9047;53.486;10.218;2024-01-25T09:14:28;31.98;;;4.63;;
17844;SDS011;9047;53.486;10.218;2024-01-25T09:16:58;36.03;;;5.32;;
17844;SDS011;9047;53.486;10.218;2024-01-25T09:19:25;33.65;;;4.80;;
17844;SDS011;9047;53.486;10.218;2024-01-25T09:21:52;39.13;;;4.97;;
17844;SDS011;9047;53.486;10.218;2024-01-25T09:24:19;26.33;;;4.55;;
17844;SDS011;9047;53.486;10.218;2024-01-25T09:26:45;36.92;;;5.50;;
17844;SDS011;9047;53.486;10.218;2024-01-25T09:29:12;30.42;;;4.95;;
17844;SDS011;9047;53.486;10.218;2024-01-25T09:31:39;36.38;;;4.78;;
17844;SDS011;9047;53.486;10.218;2024-01-25T09:34:07;28.48;;;4.35;;
17844;SDS011;9047;53.486;10.218;2024-01-25T09:36:34;32.45;;;5.43;;
17844;SDS011;9047;53.486;10.218;2024-01-25T09:39:01;33.33;;;5.40;;
17844;SDS011;9047;53.486;10.218;2024-01-25T09:41:29;32.08;;;4.80;;
17844;SDS011;9047;53.486;10.218;2024-01-25T09:43:56;28.52;;;4.90;;
17844;SDS011;9047;53.486;10.218;2024-01-25T09:46:23;33.60;;;5.70;;
17844;SDS011;9047;53.486;10.218;2024-01-25T09:48:50;36.67;;;5.53;;
17844;SDS011;9047;53.486;10.218;2024-01-25T09:51:18;30.20;;;4.95;;
17844;SDS011;9047;53.486;10.218;2024-01-25T09:53:46;30.52;;;4.93;;
17844;SDS011;9047;53.486;10.218;2024-01-25T09:56:15;35.08;;;4.93;;
17844;SDS011;9047;53.486;10.218;2024-01-25T09:58:46;31.00;;;5.07;;
17844;SDS011;9047;53.486;10.218;2024-01-25T10:01:14;29.48;;;5.28;;
17844;SDS011;9047;53.486;10.218;2024-01-25T10:03:45;29.10;;;4.55;;
17844;SDS011;9047;53.486;10.218;2024-01-25T10:06:12;34.83;;;5.65;;
17844;SDS011;9047;53.486;10.218;2024-01-25T10:08:41;35.25;;;5.15;;
17844;SDS011;9047;53.486;10.218;2024-01-25T10:11:09;37.25;;;5.70;;
17844;SDS011;9047;53.486;10.218;2024-01-25T10:13:40;31.58;;;4.90;;
17844;SDS011;9047;53.486;10.218;2024-01-25T10:16:10;31.88;;;5.32;;
17844;SDS011;9047;53.486;10.218;2024-01-25T10:18:39;35.22;;;4.72;;
17844;SDS011;9047;53.486;10.218;2024-01-25T10:21:08;33.80;;;5.10;;
17844;SDS011;9047;53.486;10.218;2024-01-25T10:23:36;35.45;;;5.15;;
17844;SDS011;9047;53.486;10.218;2024-01-25T10:26:05;30.52;;;4.80;;
17844;SDS011;9047;53.486;10.218;2024-01-25T10:28:33;27.55;;;4.93;;
17844;SDS011;9047;53.486;10.218;2024-01-25T10:31:01;32.08;;;5.00;;
17844;SDS011;9047;53.486;10.218;2024-01-25T10:33:29;29.90;;;4.75;;
17844;SDS011;9047;53.486;10.218;2024-01-25T10:35:57;27.88;;;5.00;;
17844;SDS011;9047;53.486;10.218;2024-01-25T10:38:27;29.75;;;4.95;;
17844;SDS011;9047;53.486;10.218;2024-01-25T10:40:56;26.52;;;5.15;;
17844;SDS011;9047;53.486;10.218;2024-01-25T10:43:27;31.05;;;4.78;;
17844;SDS011;9047;53.486;10.218;2024-01-25T10:45:55;29.25;;;4.70;;
17844;SDS011;9047;53.486;10.218;2024-01-25T10:48:23;26.77;;;4.95;;
17844;SDS011;9047;53.486;10.218;2024-01-25T10:50:54;34.15;;;5.53;;
17844;SDS011;9047;53.486;10.218;2024-01-25T10:53:24;36.28;;;6.00;;
17844;SDS011;9047;53.486;10.218;2024-01-25T10:55:53;38.80;;;5.05;;
17844;SDS011;9047;53.486;10.218;2024-01-25T10:58:20;30.63;;;5.25;;
17844;SDS011;9047;53.486;10.218;2024-01-25T11:00:52;36.67;;;5.63;;
17844;SDS011;9047;53.486;10.218;2024-01-25T11:03:25;36.10;;;5.70;;
17844;SDS011;9047;53.486;10.218;2024-01-25T11:05:52;32.45;;;4.72;;
17844;SDS011;9047;53.486;10.218;2024-01-25T11:08:21;33.55;;;4.75;;
17844;SDS011;9047;53.486;10.218;2024-01-25T11:10:50;34.83;;;5.00;;
17844;SDS011;9047;53.486;10.218;2024-01-25T11:13:22;34.60;;;4.68;;
17844;SDS011;9047;53.486;10.218;2024-01-25T11:15:50;29.27;;;4.93;;
17844;SDS011;9047;53.486;10.218;2024-01-25T11:18:18;26.83;;;4.18;;
17844;SDS011;9047;53.486;10.218;2024-01-25T11:20:49;29.38;;;5.15;;
17844;SDS011;9047;53.486;10.218;2024-01-25T11:23:16;31.80;;;4.45;;
17844;SDS011;9047;53.486;10.218;2024-01-25T11:25:48;21.80;;;4.35;;
17844;SDS011;9047;53.486;10.218;2024-01-25T11:28:15;34.45;;;4.80;;
17844;SDS011;9047;53.486;10.218;2024-01-25T11:30:42;25.25;;;4.85;;
17844;SDS011;9047;53.486;10.218;2024-01-25T11:33:12;30.55;;;5.20;;
17844;SDS011;9047;53.486;10.218;2024-01-25T11:35:41;35.15;;;5.30;;
17844;SDS011;9047;53.486;10.218;2024-01-25T11:38:08;27.73;;;4.57;;
17844;SDS011;9047;53.486;10.218;2024-01-25T11:40:35;27.52;;;4.63;;
17844;SDS011;9047;53.486;10.218;2024-01-25T11:43:02;31.30;;;5.10;;
17844;SDS011;9047;53.486;10.218;2024-01-25T11:45:35;35.55;;;5.53;;
17844;SDS011;9047;53.486;10.218;2024-01-25T11:48:07;27.63;;;4.70;;
17844;SDS011;9047;53.486;10.218;2024-01-25T11:50:34;34.08;;;5.30;;
17844;SDS011;9047;53.486;10.218;2024-01-25T11:53:02;31.13;;;4.55;;
17844;SDS011;9047;53.486;10.218;2024-01-25T11:55:29;23.30;;;4.93;;
17844;SDS011;9047;53.486;10.218;2024-01-25T11:57:58;31.45;;;5.68;;
17844;SDS011;9047;53.486;10.218;2024-01-25T12:00:25;32.78;;;5.65;;
17844;SDS011;9047;53.486;10.218;2024-01-25T12:02:52;33.75;;;5.15;;
17844;SDS011;9047;53.486;10.218;2024-01-25T12:05:21;32.97;;;4.85;;
17844;SDS011;9047;53.486;10.218;2024-01-25T12:07:48;28.20;;;4.82;;
17844;SDS011;9047;53.486;10.218;2024-01-25T12:10:16;29.02;;;4.32;;
17844;SDS011;9047;53.486;10.218;2024-01-25T12:12:43;29.55;;;4.88;;
17844;SDS011;9047;53.486;10.218;2024-01-25T12:15:10;29.70;;;5.10;;
17844;SDS011;9047;53.486;10.218;2024-01-25T12:17:37;31.92;;;5.10;;
17844;SDS011;9047;53.486;10.218;2024-01-25T12:20:05;32.17;;;5.13;;
17844;SDS011;9047;53.486;10.218;2024-01-25T12:22:35;24.60;;;4.72;;
17844;SDS011;9047;53.486;10.218;2024-01-25T12:25:06;32.88;;;5.03;;
17844;SDS011;9047;53.486;10.218;2024-01-25T12:27:35;30.25;;;4.68;;
17844;SDS011;9047;53.486;10.218;2024-01-25T12:30:02;28.20;;;4.70;;
17844;SDS011;9047;53.486;10.218;2024-01-25T12:32:30;29.67;;;4.75;;
17844;SDS011;9047;53.486;10.218;2024-01-25T12:34:57;24.02;;;4.97;;
17844;SDS011;9047;53.486;10.218;2024-01-25T12:37:25;28.05;;;4.53;;
17844;SDS011;9047;53.486;10.218;2024-01-25T12:39:53;26.83;;;4.72;;
17844;SDS011;9047;53.486;10.218;2024-01-25T12:42:20;24.95;;;4.93;;
17844;SDS011;9047;53.486;10.218;2024-01-25T12:44:52;27.27;;;4.38;;
17844;SDS011;9047;53.486;10.218;2024-01-25T12:47:20;35.45;;;5.63;;
17844;SDS011;9047;53.486;10.218;2024-01-25T12:49:49;35.47;;;5.30;;
17844;SDS011;9047;53.486;10.218;2024-01-25T12:52:16;25.05;;;4.72;;
17844;SDS011;9047;53.486;10.218;2024-01-25T12:54:43;28.27;;;4.80;;
17844;SDS011;9047;53.486;10.218;2024-01-25T12:57:10;28.33;;;4.93;;
17844;SDS011;9047;53.486;10.218;2024-01-25T12:59:37;29.45;;;4.53;;
17844;SDS011;9047;53.486;10.218;2024-01-25T13:02:05;29.60;;;5.15;;
17844;SDS011;9047;53.486;10.218;2024-01-25T13:04:33;22.80;;;4.38;;
17844;SDS011;9047;53.486;10.218;2024-01-25T13:07:00;25.70;;;4.38;;
17844;SDS011;9047;53.486;10.218;2024-01-25T13:09:27;30.23;;;4.18;;
17844;SDS011;9047;53.486;10.218;2024-01-25T13:11:54;18.02;;;5.00;;
17844;SDS011;9047;53.486;10.218;2024-01-25T13:14:21;25.92;;;5.05;;
17844;SDS011;9047;53.486;10.218;2024-01-25T13:16:48;25.42;;;4.32;;
17844;SDS011;9047;53.486;10.218;2024-01-25T13:19:17;26.88;;;4.57;;
17844;SDS011;9047;53.486;10.218;2024-01-25T13:21:48;24.95;;;4.93;;
17844;SDS011;9047;53.486;10.218;2024-01-25T13:24:14;30.25;;;4.55;;
17844;SDS011;9047;53.486;10.218;2024-01-25T13:26:44;26.92;;;4.43;;
17844;SDS011;9047;53.486;10.218;2024-01-25T13:29:10;30.80;;;4.20;;
17844;SDS011;9047;53.486;10.218;2024-01-25T13:31:39;23.33;;;4.43;;
17844;SDS011;9047;53.486;10.218;2024-01-25T13:34:06;25.75;;;4.55;;
17844;SDS011;9047;53.486;10.218;2024-01-25T13:36:34;27.92;;;4.00;;
17844;SDS011;9047;53.486;10.218;2024-01-25T13:39:01;28.48;;;5.03;;
17844;SDS011;9047;53.486;10.218;2024-01-25T13:41:28;25.63;;;4.57;;
17844;SDS011;9047;53.486;10.218;2024-01-25T13:43:55;23.35;;;4.18;;
17844;SDS011;9047;53.486;10.218;2024-01-25T13:46:22;23.92;;;4.35;;
17844;SDS011;9047;53.486;10.218;2024-01-25T13:48:49;23.70;;;3.90;;
17844;SDS011;9047;53.486;10.218;2024-01-25T13:51:16;25.40;;;4.15;;
17844;SDS011;9047;53.486;10.218;2024-01-25T13:53:44;24.08;;;4.18;;
17844;SDS011;9047;53.486;10.218;2024-01-25T13:56:11;26.15;;;4.50;;
17844;SDS011;9047;53.486;10.218;2024-01-25T13:58:40;26.33;;;4.18;;
17844;SDS011;9047;53.486;10.218;2024-01-25T14:01:07;28.63;;;4.40;;
17844;SDS011;9047;53.486;10.218;2024-01-25T14:03:34;30.60;;;4.80;;
17844;SDS011;9047;53.486;10.218;2024-01-25T14:06:02;25.15;;;4.70;;
17844;SDS011;9047;53.486;10.218;2024-01-25T14:08:29;26.80;;;4.60;;
17844;SDS011;9047;53.486;10.218;2024-01-25T14:10:58;26.73;;;4.57;;
17844;SDS011;9047;53.486;10.218;2024-01-25T14:13:27;26.13;;;4.38;;
17844;SDS011;9047;53.486;10.218;2024-01-25T14:15:53;26.77;;;4.53;;
17844;SDS011;9047;53.486;10.218;2024-01-25T14:18:23;27.90;;;4.53;;
17844;SDS011;9047;53.486;10.218;2024-01-25T14:20:50;22.10;;;4.53;;
17844;SDS011;9047;53.486;10.218;2024-01-25T14:23:17;23.95;;;4.47;;
17844;SDS011;9047;53.486;10.218;2024-01-25T14:25:46;29.25;;;4.32;;
17844;SDS011;9047;53.486;10.218;2024-01-25T14:28:14;23.92;;;4.30;;
17844;SDS011;9047;53.486;10.218;2024-01-25T14:30:41;26.67;;;4.38;;
17844;SDS011;9047;53.486;10.218;2024-01-25T14:33:11;29.88;;;4.93;;
17844;SDS011;9047;53.486;10.218;2024-01-25T14:35:38;32.55;;;5.18;;